Time;durP1;ratioP1;P1;durP2;ratioP2;P2;SDS_P1;SDS_P2;PMS_P1;PMS_P2;Temp;Humidity;BMP_temperature;BMP_pressure;BME280_temperature;BME280_humidity;BME280_pressure;Samples;Min_cycle;Max_cycle;Signal;HPM_P1;HPM_P2
2021/09/25 00:00:10;;;;;;;;;;;;;;;14.01;77.98;98922.66;112265;1196;63991;-83
2021/09/25 00:02:57;;;;;;;;;;;;;;;14.01;77.98;98923.73;112244;1195;61033;-85
2021/09/25 00:05:25;;;;;;;;;;;;;;;14.00;78.19;98925.75;112244;1197;60972;-84
2021/09/25 00:07:51;;;;;;;;;;;;;;;13.99;78.11;98926.34;112302;1195;65645;-84
2021/09/25 00:10:18;;;;;;;;;;;;;;;13.99;78.11;98927.05;111893;1195;61048;-85
2021/09/25 00:12:44;;;;;;;;;;;;;;;13.99;78.21;98925.27;112263;1196;63653;-85
2021/09/25 00:15:11;;;;;;;;;;;;;;;13.99;78.24;98924.20;111958;1196;61056;-85
2021/09/25 00:17:38;;;;;;;;;;;;;;;14.00;78.30;98923.08;112257;1196;61087;-84
2021/09/25 00:20:05;;;;;;;;;;;;;;;14.00;78.21;98926.86;112008;1195;65928;-84
2021/09/25 00:22:32;;;;;;;;;;;;;;;14.00;78.31;98925.91;112233;1195;61052;-84
2021/09/25 00:24:58;;;;;;;;;;;;;;;14.01;78.37;98925.48;112270;1195;60957;-83
2021/09/25 00:27:25;;;;;;;;;;;;;;;14.02;78.38;98921.15;112189;1195;60988;-86
2021/09/25 00:29:51;;;;;;;;;;;;;;;14.01;78.34;98916.19;112278;1196;61001;-84
2021/09/25 00:32:18;;;;;;;;;;;;;;;14.01;78.54;98915.68;112220;1195;61020;-85
2021/09/25 00:34:44;;;;;;;;;;;;;;;14.01;78.59;98915.36;112260;1196;60985;-84
2021/09/25 00:37:11;;;;;;;;;;;;;;;14.00;78.55;98916.65;112224;1196;64739;-85
2021/09/25 00:39:37;;;;;;;;;;;;;;;14.01;78.63;98915.70;112251;1196;61045;-84
2021/09/25 00:42:04;;;;;;;;;;;;;;;14.02;78.64;98913.24;112270;1195;61020;-84
2021/09/25 00:44:31;;;;;;;;;;;;;;;14.05;78.64;98912.51;112297;1196;65667;-82
2021/09/25 00:46:58;;;;;;;;;;;;;;;14.06;78.58;98910.28;112338;1195;61056;-83
2021/09/25 00:49:25;;;;;;;;;;;;;;;14.07;78.70;98907.92;112288;1195;64184;-83
2021/09/25 00:51:52;;;;;;;;;;;;;;;14.07;78.70;98907.39;112261;1196;60982;-83
2021/09/25 00:54:18;;;;;;;;;;;;;;;14.05;78.73;98905.67;112286;1196;61165;-83
2021/09/25 00:56:47;;;;;;;;;;;;;;;14.04;78.82;98906.65;112182;1196;67019;-83
2021/09/25 00:59:15;;;;;;;;;;;;;;;14.02;78.90;98904.85;112297;1196;61711;-83
2021/09/25 01:01:42;;;;;;;;;;;;;;;14.01;79.00;98904.40;112264;1195;65319;-83
2021/09/25 01:04:09;;;;;;;;;;;;;;;14.01;79.11;98906.21;112267;1195;61015;-83
2021/09/25 01:06:36;;;;;;;;;;;;;;;14.01;79.20;98905.51;112296;1196;60942;-83
2021/09/25 01:09:04;;;;;;;;;;;;;;;14.01;79.12;98904.45;112208;1195;66873;-82
2021/09/25 01:11:31;;;;;;;;;;;;;;;14.01;79.28;98903.73;112258;1196;61071;-83
2021/09/25 01:13:58;;;;;;;;;;;;;;;14.01;79.32;98905.36;112266;1196;64031;-85
2021/09/25 01:16:24;;;;;;;;;;;;;;;14.01;79.35;98907.46;112284;1195;61012;-83
2021/09/25 01:18:51;;;;;;;;;;;;;;;14.01;79.45;98906.01;112253;1195;60985;-83
2021/09/25 01:21:18;;;;;;;;;;;;;;;14.01;79.45;98902.11;112207;1196;67010;-83
2021/09/25 01:23:45;;;;;;;;;;;;;;;14.01;79.55;98904.42;112339;1195;61061;-82
2021/09/25 01:26:12;;;;;;;;;;;;;;;14.01;79.53;98906.55;112253;1196;62797;-83
2021/09/25 01:28:40;;;;;;;;;;;;;;;14.01;79.64;98905.50;111972;1195;60981;-85
2021/09/25 01:31:07;;;;;;;;;;;;;;;14.00;79.56;98905.90;112287;1195;61094;-83
2021/09/25 01:33:35;;;;;;;;;;;;;;;14.01;79.82;98905.80;112286;1196;67204;-85
2021/09/25 01:36:02;;;;;;;;;;;;;;;14.01;79.91;98905.64;112290;1196;60981;-83
2021/09/25 01:38:28;;;;;;;;;;;;;;;14.01;79.91;98909.23;112272;1196;63914;-82
2021/09/25 01:40:55;;;;;;;;;;;;;;;14.03;80.01;98909.65;112249;1195;61072;-83
2021/09/25 01:43:21;;;;;;;;;;;;;;;14.03;80.02;98911.26;112304;1195;61071;-82
2021/09/25 01:45:48;;;;;;;;;;;;;;;14.03;80.03;98912.31;112270;1196;66008;-83
2021/09/25 01:48:15;;;;;;;;;;;;;;;14.03;80.21;98910.50;112288;1195;60991;-83
2021/09/25 01:50:42;;;;;;;;;;;;;;;14.03;80.13;98909.44;112289;1196;65109;-83
2021/09/25 01:53:09;;;;;;;;;;;;;;;14.03;80.25;98917.84;112303;1195;61031;-83
2021/09/25 01:55:36;;;;;;;;;;;;;;;14.04;80.25;98916.55;112348;1195;61085;-83
2021/09/25 01:58:02;;;;;;;;;;;;;;;14.04;80.21;98913.45;112012;1195;64506;-83
2021/09/25 02:00:31;;;;;;;;;;;;;;;14.04;80.40;98913.45;112257;1196;60984;-83
2021/09/25 02:02:58;;;;;;;;;;;;;;;14.03;80.42;98913.35;112329;1196;64138;-85
2021/09/25 02:05:24;;;;;;;;;;;;;;;14.04;80.50;98915.27;112414;1195;61452;-83
2021/09/25 02:07:51;;;;;;;;;;;;;;;14.03;80.61;98912.80;112305;1195;61017;-83
2021/09/25 02:10:17;;;;;;;;;;;;;;;14.04;80.55;98915.80;112315;1195;60940;-85
2021/09/25 02:12:44;;;;;;;;;;;;;;;14.05;80.57;98919.64;112291;1195;61008;-85
2021/09/25 02:15:12;;;;;;;;;;;;;;;14.05;80.62;98914.25;112238;1196;63946;-84
2021/09/25 02:17:38;;;;;;;;;;;;;;;14.05;80.64;98911.04;111897;1196;61049;-85
2021/09/25 02:20:07;;;;;;;;;;;;;;;14.05;80.61;98911.56;112320;1195;61067;-83
2021/09/25 02:22:33;;;;;;;;;;;;;;;14.05;80.57;98911.56;111982;1195;66677;-84
2021/09/25 02:25:00;;;;;;;;;;;;;;;14.07;80.74;98909.16;112290;1195;61062;-84
2021/09/25 02:27:27;;;;;;;;;;;;;;;14.07;80.65;98894.52;112227;1195;64144;-83
2021/09/25 02:29:53;;;;;;;;;;;;;;;14.07;80.60;98894.83;112290;1194;61399;-84
2021/09/25 02:32:20;;;;;;;;;;;;;;;14.06;80.65;98899.20;112354;1195;61616;-84
2021/09/25 02:34:46;;;;;;;;;;;;;;;14.05;80.74;98911.23;112294;1195;60979;-84
2021/09/25 02:37:13;;;;;;;;;;;;;;;14.05;80.80;98917.30;112363;1196;61068;-84
2021/09/25 02:39:39;;;;;;;;;;;;;;;14.05;80.68;98921.44;112187;1196;61119;-84
2021/09/25 02:42:06;;;;;;;;;;;;;;;14.05;80.72;98922.70;111928;1195;60975;-83
2021/09/25 02:44:32;;;;;;;;;;;;;;;14.04;80.77;98920.08;112373;1195;60955;-85
2021/09/25 02:46:59;;;;;;;;;;;;;;;14.05;80.83;98915.04;112285;1195;61044;-83
2021/09/25 02:49:25;;;;;;;;;;;;;;;14.05;80.91;98918.36;112303;1195;61097;-83
2021/09/25 02:51:52;;;;;;;;;;;;;;;14.05;80.92;98921.77;112259;1196;61036;-83
2021/09/25 02:54:18;;;;;;;;;;;;;;;14.05;80.87;98919.83;112275;1195;61071;-83
2021/09/25 02:56:45;;;;;;;;;;;;;;;14.05;80.93;98920.70;112343;1195;61091;-83
2021/09/25 02:59:12;;;;;;;;;;;;;;;14.04;81.03;98922.39;112252;1196;64700;-83
2021/09/25 03:01:39;;;;;;;;;;;;;;;14.04;80.91;98922.94;112297;1196;60955;-83
2021/09/25 03:04:06;;;;;;;;;;;;;;;14.05;81.02;98923.38;112311;1195;64043;-83
2021/09/25 03:06:32;;;;;;;;;;;;;;;14.06;81.03;98929.02;112316;1195;61056;-83
2021/09/25 03:08:59;;;;;;;;;;;;;;;14.07;81.12;98923.46;112399;1195;61091;-83
2021/09/25 03:11:26;;;;;;;;;;;;;;;14.07;81.04;98924.67;112264;1196;66105;-83
2021/09/25 03:13:53;;;;;;;;;;;;;;;14.08;81.01;98925.50;112350;1195;60981;-82
2021/09/25 03:16:19;;;;;;;;;;;;;;;14.10;80.92;98927.66;112253;1196;62532;-83
2021/09/25 03:18:46;;;;;;;;;;;;;;;14.11;81.01;98925.27;112029;1197;61114;-83
2021/09/25 03:21:13;;;;;;;;;;;;;;;14.13;81.00;98924.58;112278;1196;60979;-84
2021/09/25 03:23:40;;;;;;;;;;;;;;;14.14;80.96;98925.70;112259;1196;66058;-83
2021/09/25 03:26:07;;;;;;;;;;;;;;;14.15;80.79;98927.58;112249;1195;60967;-84
2021/09/25 03:28:34;;;;;;;;;;;;;;;14.16;80.87;98930.39;112201;1196;65022;-84
2021/09/25 03:31:01;;;;;;;;;;;;;;;14.17;80.99;98934.21;112246;1195;61026;-84
2021/09/25 03:33:27;;;;;;;;;;;;;;;14.18;80.91;98935.21;112232;1195;61049;-85
2021/09/25 03:35:54;;;;;;;;;;;;;;;14.18;80.99;98934.08;112253;1196;60940;-85
2021/09/25 03:38:25;;;;;;;;;;;;;;;14.19;80.72;98933.31;112253;1195;61071;-85
2021/09/25 03:40:52;;;;;;;;;;;;;;;14.20;80.75;98933.04;112301;1196;63833;-83
2021/09/25 03:43:19;;;;;;;;;;;;;;;14.22;80.75;98928.65;112253;1196;61034;-84
2021/09/25 03:45:46;;;;;;;;;;;;;;;14.21;80.84;98926.16;112180;1196;60950;-83
2021/09/25 03:48:12;;;;;;;;;;;;;;;14.21;80.80;98928.30;112222;1195;67169;-84
2021/09/25 03:50:39;;;;;;;;;;;;;;;14.22;80.74;98926.31;112272;1196;61036;-85
2021/09/25 03:53:05;;;;;;;;;;;;;;;14.22;80.91;98929.49;112220;1196;61059;-85
2021/09/25 03:55:32;;;;;;;;;;;;;;;14.22;80.85;98933.79;112122;1196;61093;-85
2021/09/25 03:57:58;;;;;;;;;;;;;;;14.23;80.77;98931.77;112081;1195;61068;-82
2021/09/25 04:00:25;;;;;;;;;;;;;;;14.23;80.82;98934.41;111888;1196;61040;-83
2021/09/25 04:02:52;;;;;;;;;;;;;;;14.23;80.79;98934.75;112216;1196;61004;-83
2021/09/25 04:05:19;;;;;;;;;;;;;;;14.24;80.84;98941.84;112176;1195;64668;-85
2021/09/25 04:07:47;;;;;;;;;;;;;;;14.24;80.85;98939.67;112228;1195;61796;-85
2021/09/25 04:10:14;;;;;;;;;;;;;;;14.24;81.00;98941.47;112201;1194;61048;-84
2021/09/25 04:12:42;;;;;;;;;;;;;;;14.24;80.98;98941.11;112204;1196;66183;-83
2021/09/25 04:15:10;;;;;;;;;;;;;;;14.24;80.97;98941.80;112184;1195;61130;-83
2021/09/25 04:17:37;;;;;;;;;;;;;;;14.25;81.05;98944.27;112244;1196;64112;-83
2021/09/25 04:20:05;;;;;;;;;;;;;;;14.25;81.01;98944.03;112298;1195;61058;-83
2021/09/25 04:22:31;;;;;;;;;;;;;;;14.25;81.20;98944.23;112280;1196;61068;-82
2021/09/25 04:24:58;;;;;;;;;;;;;;;14.25;81.15;98947.10;112418;1194;65999;-83
2021/09/25 04:27:29;;;;;;;;;;;;;;;14.26;81.24;98945.95;112249;1196;60956;-82
2021/09/25 04:29:59;;;;;;;;;;;;;;;14.26;81.33;98945.95;112249;1196;62640;-83
2021/09/25 04:32:26;;;;;;;;;;;;;;;14.25;81.26;98945.64;112246;1195;61088;-83
2021/09/25 04:34:54;;;;;;;;;;;;;;;14.26;81.25;98947.02;112329;1196;61160;-83
2021/09/25 04:37:21;;;;;;;;;;;;;;;14.26;81.38;98950.07;112259;1195;64686;-83
2021/09/25 04:39:48;;;;;;;;;;;;;;;14.25;81.32;98945.10;112289;1196;61163;-82
2021/09/25 04:42:15;;;;;;;;;;;;;;;14.26;81.26;98947.20;112323;1195;65007;-83
2021/09/25 04:44:42;;;;;;;;;;;;;;;14.27;81.39;98951.98;112225;1196;61045;-83
2021/09/25 04:47:09;;;;;;;;;;;;;;;14.27;81.45;98960.30;112407;1195;60911;-82
2021/09/25 04:49:36;;;;;;;;;;;;;;;14.28;81.37;98960.22;112276;1195;65706;-83
2021/09/25 04:52:03;;;;;;;;;;;;;;;14.30;81.66;98966.19;112245;1195;61011;-83
2021/09/25 04:54:30;;;;;;;;;;;;;;;14.31;81.69;98968.98;112296;1195;64213;-82
2021/09/25 04:56:56;;;;;;;;;;;;;;;14.32;81.69;98968.69;112240;1195;61038;-84
2021/09/25 04:59:23;;;;;;;;;;;;;;;14.33;81.58;98969.73;112345;1195;61072;-84
2021/09/25 05:01:49;;;;;;;;;;;;;;;14.34;81.57;98969.79;112395;1195;65874;-83
2021/09/25 05:04:17;;;;;;;;;;;;;;;14.36;81.62;98973.61;112344;1195;61034;-85
2021/09/25 05:06:46;;;;;;;;;;;;;;;14.36;81.66;98973.70;112322;1195;65092;-85
2021/09/25 05:09:13;;;;;;;;;;;;;;;14.37;81.79;98972.71;112330;1195;61065;-85
2021/09/25 05:11:40;;;;;;;;;;;;;;;14.39;81.82;98974.23;112310;1196;61045;-83
2021/09/25 05:14:06;;;;;;;;;;;;;;;14.39;81.92;98976.35;112316;1195;61084;-84
2021/09/25 05:16:33;;;;;;;;;;;;;;;14.40;81.87;98973.55;112316;1196;61033;-85
2021/09/25 05:18:59;;;;;;;;;;;;;;;14.42;81.99;98975.41;112270;1196;63935;-83
2021/09/25 05:21:26;;;;;;;;;;;;;;;14.43;82.13;98975.69;112222;1195;61237;-84
2021/09/25 05:23:52;;;;;;;;;;;;;;;14.45;81.98;98974.23;112253;1195;61030;-83
2021/09/25 05:26:19;;;;;;;;;;;;;;;14.47;81.95;98974.02;112253;1195;61041;-83
2021/09/25 05:28:45;;;;;;;;;;;;;;;14.50;81.99;98975.77;112289;1195;61032;-83
2021/09/25 05:31:12;;;;;;;;;;;;;;;14.53;82.04;98983.95;112017;1195;61049;-83
2021/09/25 05:33:39;;;;;;;;;;;;;;;14.57;81.92;98991.52;112263;1195;60984;-83
2021/09/25 05:36:06;;;;;;;;;;;;;;;14.60;82.07;98984.84;112350;1196;61114;-84
2021/09/25 05:38:32;;;;;;;;;;;;;;;14.63;82.11;98994.06;112238;1196;66708;-84
2021/09/25 05:40:59;;;;;;;;;;;;;;;14.67;82.09;98993.92;112277;1197;61064;-84
2021/09/25 05:43:25;;;;;;;;;;;;;;;14.72;82.06;98988.65;112383;1196;65075;-83
2021/09/25 05:45:52;;;;;;;;;;;;;;;14.76;82.18;98991.54;112243;1195;61040;-83
2021/09/25 05:48:18;;;;;;;;;;;;;;;14.80;82.26;98995.33;112281;1196;60955;-83
2021/09/25 05:50:45;;;;;;;;;;;;;;;14.84;82.27;99001.42;111999;1195;61058;-83
2021/09/25 05:53:11;;;;;;;;;;;;;;;14.87;82.25;98997.53;112250;1196;61052;-83
2021/09/25 05:55:40;;;;;;;;;;;;;;;14.91;82.26;98995.95;112308;1196;61183;-83
2021/09/25 05:58:06;;;;;;;;;;;;;;;14.96;82.38;98997.93;112269;1195;61090;-83
2021/09/25 06:00:33;;;;;;;;;;;;;;;14.99;82.39;98994.77;112268;1195;61033;-83
2021/09/25 06:03:01;;;;;;;;;;;;;;;15.03;82.42;98997.08;112256;1195;65523;-83
2021/09/25 06:05:30;;;;;;;;;;;;;;;15.07;82.39;98998.33;112328;1194;60958;-83
2021/09/25 06:07:57;;;;;;;;;;;;;;;15.12;82.40;98997.92;112321;1195;62649;-82
2021/09/25 06:10:23;;;;;;;;;;;;;;;15.17;82.49;98997.20;112266;1195;61723;-83
2021/09/25 06:12:50;;;;;;;;;;;;;;;15.21;82.40;98997.36;112288;1195;61046;-83
2021/09/25 06:15:16;;;;;;;;;;;;;;;15.25;82.45;98996.17;112287;1196;61008;-83
2021/09/25 06:17:44;;;;;;;;;;;;;;;15.29;82.42;98997.39;112223;1195;61071;-83
2021/09/25 06:20:11;;;;;;;;;;;;;;;15.33;82.58;98998.30;112311;1195;64984;-83
2021/09/25 06:22:38;;;;;;;;;;;;;;;15.37;82.49;98999.38;112364;1195;60991;-86
2021/09/25 06:25:05;;;;;;;;;;;;;;;15.41;82.53;98994.23;112310;1196;61136;-83
2021/09/25 06:27:32;;;;;;;;;;;;;;;15.45;82.44;98995.86;112245;1196;67030;-83
2021/09/25 06:29:59;;;;;;;;;;;;;;;15.49;82.43;98999.75;111993;1195;61666;-84
2021/09/25 06:32:25;;;;;;;;;;;;;;;15.54;82.49;99002.20;112356;1196;64152;-84
2021/09/25 06:34:52;;;;;;;;;;;;;;;15.59;82.33;99006.08;112262;1195;61068;-83
2021/09/25 06:37:18;;;;;;;;;;;;;;;15.64;82.41;99008.33;112313;1196;61045;-83
2021/09/25 06:39:45;;;;;;;;;;;;;;;15.68;82.31;99011.02;112271;1195;61040;-84
2021/09/25 06:42:12;;;;;;;;;;;;;;;15.73;82.30;99009.91;112291;1196;61113;-83
2021/09/25 06:44:38;;;;;;;;;;;;;;;15.77;82.25;99006.41;112324;1194;64023;-83
2021/09/25 06:47:05;;;;;;;;;;;;;;;15.83;82.23;99006.85;112299;1195;61073;-82
2021/09/25 06:49:32;;;;;;;;;;;;;;;15.90;82.15;99008.70;112333;1195;61034;-85
2021/09/25 06:51:58;;;;;;;;;;;;;;;16.00;82.16;99005.02;112283;1196;66042;-83
2021/09/25 06:54:26;;;;;;;;;;;;;;;16.09;81.86;99005.09;112267;1195;61079;-84
2021/09/25 06:56:52;;;;;;;;;;;;;;;16.17;81.74;99008.27;112255;1195;63719;-84
2021/09/25 06:59:19;;;;;;;;;;;;;;;16.25;81.61;99011.02;112252;1195;60976;-83
2021/09/25 07:01:45;;;;;;;;;;;;;;;16.34;81.53;99013.09;112272;1196;60992;-84
2021/09/25 07:04:12;;;;;;;;;;;;;;;16.40;81.45;99016.44;112298;1195;64641;-83
2021/09/25 07:06:39;;;;;;;;;;;;;;;16.41;81.31;99016.09;112266;1195;61049;-84
2021/09/25 07:09:06;;;;;;;;;;;;;;;16.42;81.42;99018.42;112266;1195;62325;-84
2021/09/25 07:11:35;;;;;;;;;;;;;;;16.48;81.46;99018.77;112243;1196;61056;-84
2021/09/25 07:14:02;;;;;;;;;;;;;;;16.55;81.34;99020.28;112301;1195;60969;-84
2021/09/25 07:16:29;;;;;;;;;;;;;;;16.59;81.11;99024.58;112254;1195;66995;-84
2021/09/25 07:18:56;;;;;;;;;;;;;;;16.62;80.91;99023.17;112355;1195;60997;-84
2021/09/25 07:21:22;;;;;;;;;;;;;;;16.69;80.79;99019.36;112272;1195;62666;-83
2021/09/25 07:23:49;;;;;;;;;;;;;;;16.78;80.70;99018.02;112225;1195;60979;-83
2021/09/25 07:26:16;;;;;;;;;;;;;;;16.89;80.62;99021.01;112340;1195;61071;-84
2021/09/25 07:28:42;;;;;;;;;;;;;;;17.01;80.44;99024.36;112305;1194;61063;-82
2021/09/25 07:31:09;;;;;;;;;;;;;;;17.12;79.97;99022.38;112257;1196;61279;-84
2021/09/25 07:33:36;;;;;;;;;;;;;;;17.24;79.74;99025.23;112275;1195;64625;-84
2021/09/25 07:36:03;;;;;;;;;;;;;;;17.37;79.68;99024.51;112279;1195;61050;-84
2021/09/25 07:38:29;;;;;;;;;;;;;;;17.51;79.57;99025.74;112303;1196;61530;-84
2021/09/25 07:40:57;;;;;;;;;;;;;;;17.66;79.24;99025.23;112250;1195;66707;-84
2021/09/25 07:43:24;;;;;;;;;;;;;;;17.78;78.95;99022.24;112348;1196;61034;-84
2021/09/25 07:45:51;;;;;;;;;;;;;;;17.86;78.75;99024.56;112313;1195;65017;-83
2021/09/25 07:48:18;;;;;;;;;;;;;;;17.93;78.61;99028.89;112219;1195;61056;-83
2021/09/25 07:50:44;;;;;;;;;;;;;;;17.98;78.46;99023.90;112265;1196;60965;-82
2021/09/25 07:53:11;;;;;;;;;;;;;;;18.03;78.02;99027.94;112265;1195;61071;-84
2021/09/25 07:55:37;;;;;;;;;;;;;;;18.10;78.05;99032.86;112277;1194;61007;-85
2021/09/25 07:58:04;;;;;;;;;;;;;;;18.14;77.73;99032.02;112281;1196;62698;-84
2021/09/25 08:00:30;;;;;;;;;;;;;;;18.20;77.82;99030.95;112279;1196;61005;-84
2021/09/25 08:02:57;;;;;;;;;;;;;;;18.29;77.72;99034.97;112312;1195;60988;-84
2021/09/25 08:05:23;;;;;;;;;;;;;;;18.34;77.61;99031.55;112100;1195;61071;-86
2021/09/25 08:07:50;;;;;;;;;;;;;;;18.37;77.68;99032.89;112290;1195;60976;-85
2021/09/25 08:10:17;;;;;;;;;;;;;;;18.45;77.85;99038.45;112298;1195;63990;-83
2021/09/25 08:12:43;;;;;;;;;;;;;;;18.54;77.56;99044.33;112329;1195;61056;-84
2021/09/25 08:15:11;;;;;;;;;;;;;;;18.58;77.40;99045.20;112275;1194;61398;-84
2021/09/25 08:17:37;;;;;;;;;;;;;;;18.62;77.33;99044.44;112317;1195;74918;-84
2021/09/25 08:20:06;;;;;;;;;;;;;;;18.66;77.31;99052.54;112250;1195;60955;-83
2021/09/25 08:22:33;;;;;;;;;;;;;;;18.68;77.20;99055.36;112281;1195;64675;-83
2021/09/25 08:25:00;;;;;;;;;;;;;;;18.68;77.09;99059.73;112338;1194;61052;-84
2021/09/25 08:27:26;;;;;;;;;;;;;;;18.68;76.70;99061.70;112252;1195;61145;-84
2021/09/25 08:29:53;;;;;;;;;;;;;;;18.66;76.72;99063.64;112288;1195;64708;-84
2021/09/25 08:32:19;;;;;;;;;;;;;;;18.69;76.73;99062.83;112292;1195;61032;-84
2021/09/25 08:34:46;;;;;;;;;;;;;;;18.74;76.85;99066.45;112048;1195;61126;-84
2021/09/25 08:37:13;;;;;;;;;;;;;;;18.79;76.47;99071.58;112092;1195;61190;-84
2021/09/25 08:39:40;;;;;;;;;;;;;;;18.77;76.19;99068.05;112279;1194;62492;-84
2021/09/25 08:42:07;;;;;;;;;;;;;;;18.78;76.27;99069.67;112289;1195;66011;-84
2021/09/25 08:44:35;;;;;;;;;;;;;;;18.76;75.82;99070.95;112110;1196;61061;-84
2021/09/25 08:47:01;;;;;;;;;;;;;;;18.74;76.04;99070.80;112343;1195;64035;-83
2021/09/25 08:49:28;;;;;;;;;;;;;;;18.76;76.29;99068.82;112217;1196;60978;-83
2021/09/25 08:51:54;;;;;;;;;;;;;;;18.79;76.42;99066.66;112219;1195;60914;-83
2021/09/25 08:54:21;;;;;;;;;;;;;;;18.83;76.28;99062.30;112296;1195;65917;-82
2021/09/25 08:56:47;;;;;;;;;;;;;;;18.85;76.33;99060.36;112134;1196;61100;-83
2021/09/25 08:59:14;;;;;;;;;;;;;;;18.88;76.20;99061.91;112337;1194;60992;-83
2021/09/25 09:01:43;;;;;;;;;;;;;;;18.86;76.28;99061.63;112271;1195;61058;-83
2021/09/25 09:04:10;;;;;;;;;;;;;;;18.87;76.26;99062.48;112288;1196;61055;-83
2021/09/25 09:06:38;;;;;;;;;;;;;;;18.86;76.34;99062.16;112311;1195;66055;-83
2021/09/25 09:09:09;;;;;;;;;;;;;;;18.91;76.50;99060.32;112275;1195;61048;-83
2021/09/25 09:11:41;;;;;;;;;;;;;;;18.93;76.41;99066.07;112252;1195;62602;-83
2021/09/25 09:14:08;;;;;;;;;;;;;;;18.99;76.34;99062.69;112319;1196;61036;-84
2021/09/25 09:16:34;;;;;;;;;;;;;;;19.05;76.10;99066.87;112315;1194;61046;-84
2021/09/25 09:19:01;;;;;;;;;;;;;;;19.06;75.79;99065.48;112296;1195;66161;-84
2021/09/25 09:21:29;;;;;;;;;;;;;;;19.03;75.78;99063.61;112339;1195;61032;-85
2021/09/25 09:23:57;;;;;;;;;;;;;;;19.01;75.66;99070.44;112317;1196;62665;-82
2021/09/25 09:26:26;;;;;;;;;;;;;;;19.02;75.69;99072.14;112297;1195;60956;-84
2021/09/25 09:28:54;;;;;;;;;;;;;;;19.13;76.00;99072.08;112296;1195;60995;-83
2021/09/25 09:31:22;;;;;;;;;;;;;;;19.27;75.70;99073.23;112282;1195;66022;-83
2021/09/25 09:33:53;;;;;;;;;;;;;;;19.40;75.52;99073.73;112258;1195;61033;-83
2021/09/25 09:36:20;;;;;;;;;;;;;;;19.53;75.31;99076.20;112303;1196;64992;-83
2021/09/25 09:38:58;;;;;;;;;;;;;;;19.66;75.21;99074.45;112337;1196;61056;-83
2021/09/25 09:41:33;;;;;;;;;;;;;;;19.76;74.56;99074.36;112232;1195;61055;-82
2021/09/25 09:44:01;;;;;;;;;;;;;;;19.82;74.49;99073.15;112271;1195;66073;-83
2021/09/25 09:46:31;;;;;;;;;;;;;;;19.93;74.36;99071.69;112311;1196;61059;-83
2021/09/25 09:48:57;;;;;;;;;;;;;;;20.07;74.21;99074.73;112228;1195;63909;-83
2021/09/25 09:51:44;;;;;;;;;;;;;;;20.21;73.96;99074.48;112272;1195;60947;-83
2021/09/25 09:54:12;;;;;;;;;;;;;;;20.31;73.59;99073.73;112331;1195;60929;-83
2021/09/25 09:56:40;;;;;;;;;;;;;;;20.43;73.44;99072.19;112276;1195;64797;-85
2021/09/25 09:59:08;;;;;;;;;;;;;;;20.56;73.31;99069.00;112320;1196;61052;-83
2021/09/25 10:01:36;;;;;;;;;;;;;;;20.69;73.13;99071.21;112249;1196;64018;-83
2021/09/25 10:04:04;;;;;;;;;;;;;;;20.78;72.64;99073.10;112265;1195;61062;-84
2021/09/25 10:06:30;;;;;;;;;;;;;;;20.85;72.31;99075.67;112346;1196;60979;-83
2021/09/25 10:08:58;;;;;;;;;;;;;;;20.91;72.01;99073.86;112335;1196;66970;-83
2021/09/25 10:11:25;;;;;;;;;;;;;;;20.99;72.06;99074.09;112348;1194;61047;-83
2021/09/25 10:13:51;;;;;;;;;;;;;;;21.11;72.06;99075.09;112254;1195;61062;-83
2021/09/25 10:16:18;;;;;;;;;;;;;;;21.26;72.08;99073.12;112281;1195;61004;-83
2021/09/25 10:18:45;;;;;;;;;;;;;;;21.38;71.54;99070.38;112305;1195;60942;-83
2021/09/25 10:21:13;;;;;;;;;;;;;;;21.49;71.17;99069.31;112293;1195;64705;-83
2021/09/25 10:23:52;;;;;;;;;;;;;;;21.55;70.36;99069.61;112257;1195;60996;-85
2021/09/25 10:26:20;;;;;;;;;;;;;;;21.61;70.80;99069.05;112322;1196;62703;-84
2021/09/25 10:29:02;;;;;;;;;;;;;;;21.69;70.81;99071.05;112306;1195;60989;-84
2021/09/25 10:31:28;;;;;;;;;;;;;;;21.84;70.74;99070.48;112313;1195;61016;-83
2021/09/25 10:34:05;;;;;;;;;;;;;;;21.93;70.14;99067.09;112246;1195;66161;-83
2021/09/25 10:36:38;;;;;;;;;;;;;;;21.99;70.21;99066.81;112300;1195;61049;-83
2021/09/25 10:39:18;;;;;;;;;;;;;;;22.08;69.96;99062.20;112089;1196;62953;-83
2021/09/25 10:41:45;;;;;;;;;;;;;;;22.15;69.72;99061.05;112247;1196;61084;-84
2021/09/25 10:44:29;;;;;;;;;;;;;;;22.18;69.10;99064.31;112251;1195;61048;-83
2021/09/25 10:47:06;;;;;;;;;;;;;;;22.17;68.85;99060.48;112274;1195;65358;-83
2021/09/25 10:49:59;;;;;;;;;;;;;;;22.20;68.84;99062.50;112288;1195;60968;-84
2021/09/25 10:52:41;;;;;;;;;;;;;;;22.25;68.88;99064.00;112280;1196;62667;-85
2021/09/25 10:55:22;;;;;;;;;;;;;;;22.34;68.77;99061.17;112289;1195;61075;-84
2021/09/25 10:58:08;;;;;;;;;;;;;;;22.40;68.51;99059.25;112314;1194;60988;-84
2021/09/25 11:00:54;;;;;;;;;;;;;;;22.46;68.40;99065.02;112232;1195;66019;-84
2021/09/25 11:03:39;;;;;;;;;;;;;;;22.49;67.65;99066.75;112282;1195;61004;-83
2021/09/25 11:06:07;;;;;;;;;;;;;;;22.45;67.46;99060.61;112242;1194;62932;-83
2021/09/25 11:08:35;;;;;;;;;;;;;;;22.44;67.55;99060.42;112254;1195;60952;-83
2021/09/25 11:11:12;;;;;;;;;;;;;;;22.47;67.59;99063.20;112261;1195;60973;-83
2021/09/25 11:13:57;;;;;;;;;;;;;;;22.54;67.68;99061.45;112321;1196;65967;-84
2021/09/25 11:16:42;;;;;;;;;;;;;;;22.60;67.18;99058.94;112249;1195;61026;-84
2021/09/25 11:19:09;;;;;;;;;;;;;;;22.54;67.08;99057.24;112252;1196;64119;-84
2021/09/25 11:21:35;;;;;;;;;;;;;;;22.48;66.92;99055.23;112319;1196;61145;-84
2021/09/25 11:24:02;;;;;;;;;;;;;;;22.41;66.56;99052.45;112277;1196;60937;-82
2021/09/25 11:26:29;;;;;;;;;;;;;;;22.36;66.89;99053.55;112282;1195;67357;-85
2021/09/25 11:29:09;;;;;;;;;;;;;;;22.38;67.15;99049.90;112264;1196;61027;-86
2021/09/25 11:31:36;;;;;;;;;;;;;;;22.40;66.64;99051.30;112252;1195;62729;-86
2021/09/25 11:34:18;;;;;;;;;;;;;;;22.41;66.56;99057.55;112110;1195;60979;-82
2021/09/25 11:37:05;;;;;;;;;;;;;;;22.36;66.28;99056.96;112351;1196;59996;-83
2021/09/25 11:39:42;;;;;;;;;;;;;;;22.36;66.16;99053.95;112143;1196;64745;-83
2021/09/25 11:42:12;;;;;;;;;;;;;;;22.37;66.07;99052.37;112097;1196;61113;-84
2021/09/25 11:44:42;;;;;;;;;;;;;;;22.42;66.12;99053.84;112295;1195;63839;-85
2021/09/25 11:47:09;;;;;;;;;;;;;;;22.51;66.12;99048.37;112387;1196;61027;-85
2021/09/25 11:49:36;;;;;;;;;;;;;;;22.61;65.64;99046.31;112335;1196;60976;-84
2021/09/25 11:52:03;;;;;;;;;;;;;;;22.65;65.72;99044.38;112229;1195;60960;-85
2021/09/25 11:54:29;;;;;;;;;;;;;;;22.70;65.37;99043.31;112082;1195;61141;-84
2021/09/25 11:56:56;;;;;;;;;;;;;;;22.70;64.93;99039.77;112271;1196;62982;-84
2021/09/25 11:59:25;;;;;;;;;;;;;;;22.77;65.53;99034.59;112042;1195;61110;-87
2021/09/25 12:01:51;;;;;;;;;;;;;;;22.92;65.80;99032.19;112385;1194;61059;-84
2021/09/25 12:04:18;;;;;;;;;;;;;;;23.06;65.76;99032.76;112323;1195;60966;-83
2021/09/25 12:06:51;;;;;;;;;;;;;;;23.17;65.52;99032.70;112336;1195;60992;-83
2021/09/25 12:09:37;;;;;;;;;;;;;;;23.03;64.39;99028.92;112242;1195;62499;-83
2021/09/25 12:12:04;;;;;;;;;;;;;;;22.80;64.53;99034.98;112321;1195;60941;-82
2021/09/25 12:14:44;;;;;;;;;;;;;;;22.54;64.05;99033.92;112380;1195;60943;-83
2021/09/25 12:17:14;;;;;;;;;;;;;;;22.22;64.55;99038.55;112142;1196;64728;-83
2021/09/25 12:19:43;;;;;;;;;;;;;;;21.94;65.03;99047.86;112293;1196;61061;-83
2021/09/25 12:22:17;;;;;;;;;;;;;;;21.72;65.46;99048.89;112357;1196;63704;-84
2021/09/25 12:24:44;;;;;;;;;;;;;;;21.51;65.79;99051.44;112265;1194;61097;-83
2021/09/25 12:27:11;;;;;;;;;;;;;;;21.35;66.30;99052.65;112328;1195;61036;-83
2021/09/25 12:29:37;;;;;;;;;;;;;;;21.25;66.63;99048.14;112251;1195;60966;-84
2021/09/25 12:32:04;;;;;;;;;;;;;;;21.22;67.02;99046.48;112330;1196;61042;-88
2021/09/25 12:34:30;;;;;;;;;;;;;;;21.31;67.37;99046.80;112562;1196;64784;-88
2021/09/25 12:36:59;;;;;;;;;;;;;;;21.42;67.43;99044.27;112443;1196;61555;-88
2021/09/25 12:42:03;;;;;;;;;;;;;;;21.61;67.03;99038.30;114056;1181;64618;-94